Time;durP1;ratioP1;P1;durP2;ratioP2;P2;SDS_P1;SDS_P2;PMS_P1;PMS_P2;Temp;Humidity;BMP_temperature;BMP_pressure;BME280_temperature;BME280_humidity;BME280_pressure;Samples;Min_cycle;Max_cycle;Signal;HPM_P1;HPM_P2
2020/12/17 00:01:09;;;;;;;0.40;0.40;;;7.70;99.90;;;;;;5064238;28;20763;-85
2020/12/17 00:03:35;;;;;;;0.98;0.95;;;7.60;99.90;;;;;;5051537;28;20035;-85
2020/12/17 00:06:00;;;;;;;2.42;1.55;;;7.60;99.90;;;;;;5065885;28;20037;-85
2020/12/17 00:08:27;;;;;;;2.80;2.42;;;7.50;99.90;;;;;;5033408;28;20028;-85
2020/12/17 00:10:52;;;;;;;0.90;0.90;;;7.60;99.90;;;;;;5045391;28;20090;-85
2020/12/17 00:13:19;;;;;;;0.88;0.88;;;7.60;99.90;;;;;;5051178;28;20052;-86
2020/12/17 00:15:45;;;;;;;;;;;7.80;99.90;;;;;;5068448;28;20025;-85
2020/12/17 00:18:11;;;;;;;0.50;0.50;;;7.50;99.90;;;;;;5069022;28;19929;-85
2020/12/17 00:20:37;;;;;;;1.45;1.30;;;7.40;99.90;;;;;;5051063;28;20048;-85
2020/12/17 00:23:03;;;;;;;0.30;0.30;;;7.30;99.90;;;;;;5068679;28;20040;-86
2020/12/17 00:25:29;;;;;;;0.10;0.10;;;7.30;99.90;;;;;;5046323;28;20024;-86
2020/12/17 00:27:54;;;;;;;0.50;0.50;;;7.30;99.90;;;;;;5051552;28;20293;-85
2020/12/17 00:30:21;;;;;;;1.30;0.85;;;7.30;99.90;;;;;;5069606;28;20435;-85
2020/12/17 00:32:47;;;;;;;0.87;0.83;;;7.40;99.90;;;;;;5069344;28;20066;-84
2020/12/17 00:35:14;;;;;;;0.27;0.27;;;7.30;99.90;;;;;;5051139;28;20580;-84
2020/12/17 00:37:40;;;;;;;2.90;1.48;;;7.20;99.90;;;;;;5065518;28;20025;-84
2020/12/17 00:40:08;;;;;;;0.50;0.50;;;7.20;99.90;;;;;;5065624;28;20036;-83
2020/12/17 00:42:41;;;;;;;1.17;0.82;;;7.10;99.90;;;;;;5069800;28;20020;-83
2020/12/17 00:45:07;;;;;;;1.33;1.23;;;7.10;99.90;;;;;;5057822;28;20027;-83
2020/12/17 00:47:33;;;;;;;0.80;0.80;;;7.20;99.90;;;;;;5053078;28;20051;-83
2020/12/17 00:49:59;;;;;;;0.28;0.28;;;7.30;99.90;;;;;;5050905;28;20033;-83
2020/12/17 00:52:25;;;;;;;0.40;0.40;;;7.50;99.90;;;;;;5069031;28;20059;-83
2020/12/17 00:54:51;;;;;;;1.10;0.88;;;7.70;99.90;;;;;;5062906;28;20126;-84
2020/12/17 00:57:17;;;;;;;8.55;2.22;;;7.70;99.90;;;;;;5064516;28;20052;-84
2020/12/17 00:59:43;;;;;;;0.40;0.40;;;7.70;99.90;;;;;;5060923;28;20272;-84
2020/12/17 01:02:09;;;;;;;0.28;0.28;;;7.90;99.90;;;;;;5066110;28;20027;-84
2020/12/17 01:04:35;;;;;;;0.10;0.10;;;8.10;99.90;;;;;;5050159;28;20399;-83
2020/12/17 01:07:01;;;;;;;1.45;1.35;;;8.10;99.90;;;;;;5069358;28;20100;-83
2020/12/17 01:09:26;;;;;;;0.13;0.13;;;8.30;99.90;;;;;;5065003;28;20032;-83
2020/12/17 01:11:52;;;;;;;0.30;0.30;;;8.30;99.90;;;;;;5055235;28;20028;-83
2020/12/17 01:14:18;;;;;;;0.30;0.30;;;8.30;99.90;;;;;;5067889;28;20029;-83
2020/12/17 01:16:50;;;;;;;0.45;0.45;;;8.40;99.90;;;;;;5065103;28;20532;-84
2020/12/17 01:19:16;;;;;;;0.15;0.15;;;8.40;99.90;;;;;;5062530;28;20045;-84
2020/12/17 01:21:42;;;;;;;0.20;0.20;;;8.40;99.90;;;;;;5060980;28;20055;-85
2020/12/17 01:24:08;;;;;;;0.10;0.10;;;8.20;99.90;;;;;;5066459;28;20086;-85
2020/12/17 01:26:34;;;;;;;0.50;0.30;;;8.20;99.90;;;;;;5046620;28;20048;-86
2020/12/17 01:28:59;;;;;;;0.20;0.20;;;8.10;99.90;;;;;;5067112;28;20024;-86
2020/12/17 01:31:25;;;;;;;0.50;0.50;;;8.10;99.90;;;;;;5066728;28;20029;-86
2020/12/17 01:33:51;;;;;;;1.88;0.57;;;8.20;99.90;;;;;;5068482;28;20028;-86
2020/12/17 01:36:16;;;;;;;0.30;0.30;;;8.30;99.90;;;;;;5069374;28;20505;-86
2020/12/17 01:38:42;;;;;;;0.38;0.38;;;8.30;99.90;;;;;;5066916;28;20024;-85
2020/12/17 01:41:12;;;;;;;0.10;0.10;;;8.10;99.90;;;;;;5067351;28;20037;-85
2020/12/17 01:43:40;;;;;;;0.15;0.15;;;8.20;99.90;;;;;;5068624;28;20028;-85
2020/12/17 01:46:07;;;;;;;0.10;0.10;;;8.30;99.90;;;;;;5039713;28;20036;-85
2020/12/17 01:48:34;;;;;;;0.20;0.20;;;8.30;99.90;;;;;;5059332;28;20492;-84
2020/12/17 01:51:01;;;;;;;0.45;0.45;;;8.20;99.90;;;;;;5066351;28;20036;-86
2020/12/17 01:53:27;;;;;;;0.10;0.10;;;8.20;99.90;;;;;;5068358;28;20024;-86
2020/12/17 01:56:01;;;;;;;0.10;0.10;;;8.20;99.90;;;;;;5049319;28;20020;-86
2020/12/17 01:58:30;;;;;;;0.30;0.30;;;8.10;99.90;;;;;;5067846;28;20526;-85
2020/12/17 02:00:58;;;;;;;0.32;0.20;;;8.10;99.90;;;;;;5049419;28;20032;-86
2020/12/17 02:03:24;;;;;;;0.20;0.20;;;8.20;99.90;;;;;;5067656;28;20036;-86
2020/12/17 02:05:50;;;;;;;0.10;0.10;;;8.30;99.90;;;;;;5042194;28;20377;-85
2020/12/17 02:08:20;;;;;;;0.10;0.10;;;8.40;99.90;;;;;;5064505;28;20036;-86
2020/12/17 02:10:46;;;;;;;0.10;0.10;;;8.40;99.90;;;;;;5059357;28;20031;-86
2020/12/17 02:13:12;;;;;;;0.33;0.33;;;8.50;99.90;;;;;;5064593;28;20401;-85
2020/12/17 02:15:38;;;;;;;0.20;0.20;;;8.60;99.90;;;;;;5063368;28;20032;-86
2020/12/17 02:18:08;;;;;;;8.73;3.85;;;8.70;99.90;;;;;;5056521;28;20506;-86
2020/12/17 02:20:34;;;;;;;5.15;3.67;;;8.60;99.90;;;;;;5050317;28;20033;-86
2020/12/17 02:23:01;;;;;;;0.88;0.88;;;8.50;99.90;;;;;;5054102;28;20051;-86
2020/12/17 02:25:27;;;;;;;4.40;2.70;;;8.40;99.90;;;;;;5042779;28;20544;-86
2020/12/17 02:27:53;;;;;;;3.45;2.38;;;8.40;99.90;;;;;;5068377;28;20032;-86
2020/12/17 02:30:19;;;;;;;1.25;1.17;;;8.40;99.90;;;;;;5066558;28;20046;-86
2020/12/17 02:32:44;;;;;;;2.55;2.33;;;8.40;99.90;;;;;;5050153;28;20025;-86
2020/12/17 02:35:10;;;;;;;0.60;0.60;;;8.40;99.90;;;;;;5056481;28;20024;-86
2020/12/17 02:37:36;;;;;;;1.35;1.30;;;8.40;99.90;;;;;;5062388;28;20033;-85
2020/12/17 02:40:03;;;;;;;1.38;1.23;;;8.30;99.90;;;;;;5064066;28;20379;-85
2020/12/17 02:42:29;;;;;;;6.43;1.48;;;8.30;99.90;;;;;;5042694;28;20028;-85
2020/12/17 02:44:55;;;;;;;1.83;1.73;;;8.20;99.90;;;;;;5065674;28;20025;-85
2020/12/17 02:47:21;;;;;;;3.70;0.63;;;8.20;99.90;;;;;;5063986;28;20869;-85
2020/12/17 02:49:47;;;;;;;0.22;0.22;;;8.20;99.90;;;;;;5048856;28;20463;-85
2020/12/17 02:52:13;;;;;;;1.88;0.82;;;8.20;99.90;;;;;;5050218;28;20024;-85
2020/12/17 02:54:39;;;;;;;0.22;0.22;;;8.20;99.90;;;;;;5067909;28;20039;-84
2020/12/17 02:57:04;;;;;;;0.40;0.40;;;8.20;99.90;;;;;;5049741;28;20078;-84
2020/12/17 02:59:30;;;;;;;0.15;0.15;;;8.30;99.90;;;;;;5067938;28;20051;-84
2020/12/17 03:01:56;;;;;;;1.48;0.70;;;8.30;99.90;;;;;;5040683;28;20055;-84
2020/12/17 03:04:22;;;;;;;5.53;0.93;;;8.30;99.90;;;;;;5057598;28;20029;-84
2020/12/17 03:06:47;;;;;;;0.10;0.10;;;8.30;99.90;;;;;;5058020;28;20425;-84
2020/12/17 03:09:14;;;;;;;0.10;0.10;;;8.30;99.90;;;;;;5067360;28;20040;-85
2020/12/17 03:11:40;;;;;;;0.22;0.22;;;8.30;99.90;;;;;;5067200;28;20471;-85
2020/12/17 03:14:05;;;;;;;4.45;1.20;;;8.30;99.90;;;;;;5057739;28;20111;-85
2020/12/17 03:16:32;;;;;;;0.10;0.10;;;8.30;99.90;;;;;;5047693;28;20036;-85
2020/12/17 03:18:58;;;;;;;0.10;0.10;;;8.40;99.90;;;;;;5047351;28;20040;-86
2020/12/17 03:21:24;;;;;;;0.70;0.70;;;8.40;99.90;;;;;;5044166;28;20033;-87
2020/12/17 03:23:50;;;;;;;1.92;0.73;;;8.50;99.90;;;;;;5047648;28;20066;-86
2020/12/17 03:26:15;;;;;;;1.83;0.95;;;8.40;99.90;;;;;;5058065;28;20121;-86
2020/12/17 03:28:41;;;;;;;0.10;0.10;;;8.50;99.90;;;;;;5067422;28;20049;-87
2020/12/17 03:31:07;;;;;;;0.47;0.47;;;8.60;99.90;;;;;;5067113;28;20068;-87
2020/12/17 03:33:33;;;;;;;0.20;0.20;;;8.60;99.90;;;;;;5035831;28;20029;-87
2020/12/17 03:35:58;;;;;;;0.40;0.40;;;8.60;99.90;;;;;;5065154;28;20037;-87
2020/12/17 03:38:24;;;;;;;0.10;0.10;;;8.70;99.90;;;;;;5064323;28;20031;-86
2020/12/17 03:40:50;;;;;;;0.35;0.35;;;8.70;99.90;;;;;;5068539;28;20401;-85
2020/12/17 03:43:16;;;;;;;3.92;0.75;;;8.70;99.90;;;;;;5070290;28;20032;-85
2020/12/17 03:45:41;;;;;;;0.10;0.10;;;8.70;99.90;;;;;;5066062;28;20043;-85
2020/12/17 03:48:07;;;;;;;0.20;0.20;;;8.70;99.90;;;;;;5070426;28;20028;-85
2020/12/17 03:50:33;;;;;;;0.20;0.20;;;8.50;99.90;;;;;;5064977;28;20108;-86
2020/12/17 03:52:59;;;;;;;0.10;0.10;;;8.30;99.90;;;;;;5070919;28;20490;-86
2020/12/17 03:55:24;;;;;;;0.15;0.15;;;8.10;99.90;;;;;;5052355;28;20790;-86
2020/12/17 03:57:50;;;;;;;0.10;0.10;;;8.00;99.90;;;;;;5070752;28;20104;-86
2020/12/17 04:00:16;;;;;;;0.20;0.20;;;8.00;99.90;;;;;;5069105;28;20096;-85
2020/12/17 04:02:42;;;;;;;0.10;0.10;;;8.00;99.90;;;;;;5058971;28;20032;-86
2020/12/17 04:05:07;;;;;;;0.20;0.20;;;8.10;99.90;;;;;;5050268;28;20036;-85
2020/12/17 04:07:33;;;;;;;0.32;0.32;;;8.20;99.90;;;;;;5070395;28;20028;-85
2020/12/17 04:09:59;;;;;;;0.30;0.30;;;8.30;99.90;;;;;;5069865;28;20059;-86
2020/12/17 04:12:24;;;;;;;0.20;0.20;;;8.30;99.90;;;;;;5069714;28;20051;-85
2020/12/17 04:14:50;;;;;;;0.15;0.15;;;8.30;99.90;;;;;;5069809;28;20035;-85
2020/12/17 04:17:16;;;;;;;0.52;0.40;;;8.20;99.90;;;;;;5052611;28;20029;-85
2020/12/17 04:19:42;;;;;;;0.20;0.20;;;8.20;99.90;;;;;;5046807;28;20780;-85
2020/12/17 04:22:08;;;;;;;0.57;0.57;;;8.20;99.90;;;;;;5070391;28;20463;-85
2020/12/17 04:24:33;;;;;;;0.52;0.52;;;8.20;99.90;;;;;;5065247;28;20033;-85
2020/12/17 04:26:59;;;;;;;0.30;0.30;;;8.30;99.90;;;;;;5069699;28;20032;-85
2020/12/17 04:29:25;;;;;;;0.10;0.10;;;8.20;99.90;;;;;;5044229;28;20039;-84
2020/12/17 04:31:51;;;;;;;0.20;0.20;;;8.10;99.90;;;;;;5069806;28;20382;-84
2020/12/17 04:34:16;;;;;;;0.55;0.55;;;8.00;99.90;;;;;;5050619;28;20162;-84
2020/12/17 04:36:42;;;;;;;0.20;0.20;;;7.90;99.90;;;;;;5065247;28;20059;-84
2020/12/17 04:39:08;;;;;;;0.30;0.30;;;7.90;99.90;;;;;;5050587;28;20021;-84
2020/12/17 04:41:37;;;;;;;0.57;0.57;;;7.80;99.90;;;;;;5057661;28;20029;-85
2020/12/17 04:44:04;;;;;;;0.32;0.32;;;7.80;99.90;;;;;;5066525;28;20436;-85
2020/12/17 04:46:34;;;;;;;0.17;0.17;;;7.80;99.90;;;;;;5068918;28;20077;-85
2020/12/17 04:49:03;;;;;;;0.00;0.00;;;7.90;99.90;;;;;;5068594;28;20028;-85
2020/12/17 04:51:31;;;;;;;0.20;0.20;;;8.00;99.90;;;;;;5069024;28;20024;-86
2020/12/17 04:54:03;;;;;;;0.47;0.47;;;8.00;99.90;;;;;;5068028;28;20033;-87
2020/12/17 04:56:37;;;;;;;0.43;0.43;;;8.10;99.90;;;;;;5061818;28;20048;-86
2020/12/17 04:59:04;;;;;;;0.30;0.30;;;8.10;99.90;;;;;;5040996;28;20082;-86
2020/12/17 05:01:32;;;;;;;0.30;0.30;;;8.10;99.90;;;;;;5068314;28;20069;-86
2020/12/17 05:03:58;;;;;;;0.10;0.10;;;8.20;99.90;;;;;;5069589;28;20062;-86
2020/12/17 05:06:25;;;;;;;0.20;0.20;;;8.20;99.90;;;;;;5065820;28;20024;-86
2020/12/17 05:08:54;;;;;;;;;;;8.10;99.90;;;;;;5065343;28;20033;-86
2020/12/17 05:11:20;;;;;;;0.10;0.10;;;8.10;99.90;;;;;;5061706;28;19954;-86
2020/12/17 05:13:47;;;;;;;0.40;0.40;;;8.10;99.90;;;;;;5044100;28;20151;-86
2020/12/17 05:16:13;;;;;;;0.52;0.52;;;8.00;99.90;;;;;;5035844;28;20029;-86
2020/12/17 05:18:38;;;;;;;0.28;0.28;;;8.00;99.90;;;;;;5059509;28;20321;-86
2020/12/17 05:21:05;;;;;;;0.40;0.40;;;8.10;99.90;;;;;;5055743;28;20608;-84
2020/12/17 05:23:31;;;;;;;0.25;0.25;;;8.20;99.90;;;;;;5063228;28;20389;-84
2020/12/17 05:25:57;;;;;;;0.10;0.10;;;8.20;99.90;;;;;;5051970;28;20048;-84
2020/12/17 05:28:23;;;;;;;0.30;0.30;;;8.20;99.90;;;;;;5069093;28;20021;-85
2020/12/17 05:30:48;;;;;;;0.70;0.63;;;8.20;99.90;;;;;;5068224;28;20425;-85
2020/12/17 05:33:14;;;;;;;0.10;0.10;;;8.20;99.90;;;;;;5055847;28;20032;-86
2020/12/17 05:35:42;;;;;;;0.10;0.10;;;8.20;99.90;;;;;;5066848;28;20029;-85
2020/12/17 05:38:10;;;;;;;0.10;0.10;;;8.30;99.90;;;;;;5062415;28;20799;-86
2020/12/17 05:40:41;;;;;;;0.10;0.10;;;8.20;99.90;;;;;;5051424;28;20402;-90
2020/12/17 05:43:08;;;;;;;0.50;0.50;;;8.20;99.90;;;;;;5055820;28;20024;-89
2020/12/17 05:45:35;;;;;;;0.10;0.10;;;8.20;99.90;;;;;;5057520;28;20047;-88
2020/12/17 05:48:06;;;;;;;;;;;8.20;99.90;;;;;;5070049;28;20024;-88
2020/12/17 05:50:33;;;;;;;0.20;0.20;;;8.20;99.90;;;;;;5067633;28;20045;-88
2020/12/17 05:53:02;;;;;;;0.52;0.52;;;8.40;99.90;;;;;;5054407;28;20057;-89
2020/12/17 05:55:31;;;;;;;0.70;0.70;;;8.50;99.90;;;;;;5050652;28;20025;-88
2020/12/17 05:57:57;;;;;;;0.25;0.25;;;8.50;99.90;;;;;;5049235;28;20031;-87
2020/12/17 06:00:23;;;;;;;0.80;0.80;;;8.60;99.90;;;;;;5049495;28;20028;-89
2020/12/17 06:02:48;;;;;;;0.10;0.10;;;8.60;99.90;;;;;;5049850;28;20021;-87
2020/12/17 06:05:16;;;;;;;0.08;0.08;;;8.70;99.90;;;;;;5065072;28;20033;-88
2020/12/17 06:07:48;;;;;;;0.22;0.22;;;8.60;99.90;;;;;;5054096;28;20562;-88
2020/12/17 06:10:33;;;;;;;0.28;0.28;;;8.70;99.90;;;;;;5037532;28;20521;-86
2020/12/17 06:13:01;;;;;;;0.40;0.40;;;8.80;99.90;;;;;;5063043;28;20024;-87
2020/12/17 06:15:29;;;;;;;0.82;0.55;;;8.80;99.90;;;;;;5067257;28;20635;-85
2020/12/17 06:17:55;;;;;;;0.68;0.68;;;8.70;99.90;;;;;;5063517;28;20041;-85
2020/12/17 06:20:23;;;;;;;0.35;0.35;;;8.80;99.90;;;;;;5063320;28;20640;-85
2020/12/17 06:22:59;;;;;;;0.20;0.20;;;8.70;99.90;;;;;;5061137;28;20114;-84
2020/12/17 06:25:27;;;;;;;0.52;0.52;;;8.80;99.90;;;;;;5060816;28;20032;-84
2020/12/17 06:27:54;;;;;;;0.10;0.10;;;8.70;99.90;;;;;;5048878;28;20097;-85
2020/12/17 06:30:24;;;;;;;;;;;8.70;99.90;;;;;;5064548;28;20040;-84
2020/12/17 06:32:53;;;;;;;0.17;0.17;;;8.70;99.90;;;;;;5048765;28;20542;-85
2020/12/17 06:35:39;;;;;;;1.00;0.65;;;8.80;99.90;;;;;;5067490;28;20075;-85
2020/12/17 06:38:16;;;;;;;0.10;0.10;;;8.80;99.90;;;;;;5069428;28;20024;-92
2020/12/17 06:40:42;;;;;;;0.20;0.20;;;8.80;99.90;;;;;;5053088;28;20040;-92
2020/12/17 06:43:34;;;;;;;0.82;0.80;;;8.80;99.90;;;;;;5059597;28;20032;-91
2020/12/17 06:46:01;;;;;;;0.20;0.20;;;8.80;99.90;;;;;;5064471;28;20508;-95
2020/12/17 06:48:41;;;;;;;;;;;8.90;99.90;;;;;;5059161;28;20031;-95
2020/12/17 06:51:38;;;;;;;0.10;0.10;;;9.00;99.90;;;;;;5055124;28;20349;-94
2020/12/17 06:54:39;;;;;;;0.32;0.32;;;9.10;99.90;;;;;;5055638;28;20045;-94
2020/12/17 06:57:10;;;;;;;0.30;0.30;;;9.00;99.90;;;;;;5072816;28;20025;-94
2020/12/17 06:59:38;;;;;;;0.10;0.10;;;8.90;99.90;;;;;;5055737;28;20035;-93
2020/12/17 07:02:05;;;;;;;0.10;0.10;;;8.60;99.90;;;;;;5055469;28;20101;-93
2020/12/17 07:04:45;;;;;;;0.10;0.10;;;8.40;99.90;;;;;;5048402;28;20032;-92
2020/12/17 07:07:20;;;;;;;0.20;0.20;;;8.40;99.90;;;;;;5036122;28;20425;-91
2020/12/17 07:09:52;;;;;;;0.57;0.57;;;8.30;99.90;;;;;;5053413;28;20036;-92
2020/12/17 07:12:36;;;;;;;0.20;0.20;;;8.30;99.90;;;;;;5066899;28;20036;-91
2020/12/17 07:15:28;;;;;;;0.25;0.25;;;8.30;99.90;;;;;;5073843;28;20040;-90
2020/12/17 07:18:14;;;;;;;0.52;0.52;;;8.40;99.90;;;;;;5052494;28;20036;-90
2020/12/17 07:20:43;;;;;;;0.32;0.32;;;8.40;99.90;;;;;;5073022;28;20386;-92
2020/12/17 07:23:09;;;;;;;0.20;0.20;;;8.50;99.90;;;;;;5060361;28;20031;-91
2020/12/17 07:25:38;;;;;;;0.10;0.10;;;8.60;99.90;;;;;;5059115;28;20406;-90
2020/12/17 07:28:06;;;;;;;0.65;0.65;;;8.80;99.90;;;;;;5069724;28;20028;-90
2020/12/17 07:30:32;;;;;;;0.20;0.20;;;8.90;99.90;;;;;;5072376;28;20031;-91
2020/12/17 07:32:58;;;;;;;0.17;0.17;;;9.10;99.90;;;;;;5054123;28;20021;-90
2020/12/17 07:35:27;;;;;;;0.22;0.22;;;9.30;99.90;;;;;;5070161;28;20029;-90
2020/12/17 07:38:01;;;;;;;0.85;0.55;;;9.30;99.90;;;;;;5057226;28;20115;-93
2020/12/17 07:40:39;;;;;;;0.40;0.40;;;9.40;99.90;;;;;;5047754;28;20017;-95
2020/12/17 07:43:14;;;;;;;0.65;0.65;;;9.40;99.90;;;;;;5058431;28;20029;-94
2020/12/17 07:45:43;;;;;;;0.65;0.52;;;9.20;99.90;;;;;;5058829;28;20012;-94
2020/12/17 07:48:41;;;;;;;0.25;0.25;;;9.20;99.90;;;;;;5058831;28;20031;-93
2020/12/17 07:51:07;;;;;;;0.65;0.65;;;9.10;99.90;;;;;;5058694;28;20418;-95
2020/12/17 07:53:33;;;;;;;0.22;0.22;;;9.00;99.90;;;;;;5075011;28;20064;-93
2020/12/17 07:56:00;;;;;;;0.25;0.25;;;9.10;99.90;;;;;;5055523;28;20116;-94
2020/12/17 07:58:25;;;;;;;0.30;0.30;;;9.10;99.90;;;;;;5055739;28;20033;-94
2020/12/17 08:00:56;;;;;;;0.10;0.10;;;9.20;99.90;;;;;;5056786;28;20079;-96
2020/12/17 08:03:23;;;;;;;0.38;0.38;;;9.30;99.90;;;;;;5058082;28;20025;-94
2020/12/17 08:05:49;;;;;;;0.20;0.20;;;9.20;99.90;;;;;;5057403;28;20485;-90
2020/12/17 08:08:17;;;;;;;0.32;0.32;;;9.00;99.90;;;;;;5071525;28;20119;-89
2020/12/17 08:10:43;;;;;;;0.35;0.35;;;8.80;99.90;;;;;;5051835;28;20025;-90
2020/12/17 08:13:10;;;;;;;0.30;0.30;;;8.70;99.90;;;;;;5052368;28;20402;-91
2020/12/17 08:15:36;;;;;;;0.13;0.13;;;8.70;99.90;;;;;;5058908;28;20485;-91
2020/12/17 08:18:04;;;;;;;0.13;0.13;;;9.20;99.90;;;;;;5048730;28;20017;-91
2020/12/17 08:20:30;;;;;;;0.20;0.20;;;9.30;99.90;;;;;;5065059;28;20071;-88
2020/12/17 08:22:56;;;;;;;5.30;1.48;;;9.40;99.90;;;;;;5067257;28;20024;-88
2020/12/17 08:25:26;;;;;;;0.30;0.30;;;9.40;99.90;;;;;;5070055;28;20044;-88
2020/12/17 08:27:52;;;;;;;0.20;0.20;;;9.50;99.90;;;;;;5052023;28;20040;-88
2020/12/17 08:30:21;;;;;;;0.20;0.20;;;9.60;99.90;;;;;;5070091;28;20051;-88
2020/12/17 08:32:53;;;;;;;0.05;0.05;;;9.40;99.90;;;;;;5037906;28;20588;-88
2020/12/17 08:35:22;;;;;;;0.25;0.25;;;8.80;99.90;;;;;;5051588;28;20055;-88
2020/12/17 08:37:54;;;;;;;0.10;0.10;;;8.80;99.90;;;;;;5069818;28;20017;-88
2020/12/17 08:40:25;;;;;;;0.65;0.60;;;9.00;99.90;;;;;;5044257;28;20467;-88
2020/12/17 08:43:01;;;;;;;0.10;0.10;;;9.10;99.90;;;;;;5063913;28;20028;-88
2020/12/17 08:45:27;;;;;;;0.13;0.13;;;9.20;99.90;;;;;;5055786;28;20033;-88
2020/12/17 08:48:01;;;;;;;0.10;0.10;;;9.30;99.90;;;;;;5064523;28;20505;-88
2020/12/17 08:50:28;;;;;;;0.10;0.10;;;9.50;99.90;;;;;;5069429;28;20028;-88
2020/12/17 08:52:54;;;;;;;0.25;0.25;;;9.60;99.90;;;;;;5069345;28;20111;-88
2020/12/17 08:55:23;;;;;;;1.45;0.88;;;9.60;99.90;;;;;;5069290;28;20561;-88
2020/12/17 08:57:49;;;;;;;0.20;0.20;;;9.70;99.90;;;;;;5069705;28;20025;-88
2020/12/17 09:00:19;;;;;;;0.75;0.75;;;9.80;99.90;;;;;;5050931;28;20029;-88
2020/12/17 09:02:45;;;;;;;0.30;0.30;;;9.90;99.90;;;;;;5053987;28;20028;-88
2020/12/17 09:05:13;;;;;;;0.85;0.85;;;9.80;99.90;;;;;;5069513;28;20520;-88
2020/12/17 09:07:46;;;;;;;0.55;0.55;;;9.80;99.90;;;;;;5065348;28;20036;-88
2020/12/17 09:10:16;;;;;;;0.70;0.70;;;9.80;99.90;;;;;;5057754;28;20025;-88
2020/12/17 09:12:43;;;;;;;2.72;0.70;;;9.70;99.90;;;;;;5066824;28;20032;-88
2020/12/17 09:15:12;;;;;;;3.28;1.42;;;9.70;99.90;;;;;;5069157;28;20078;-88
2020/12/17 09:17:39;;;;;;;7.72;0.77;;;9.70;99.90;;;;;;5068669;28;20047;-89
2020/12/17 09:20:17;;;;;;;;;;;9.70;99.90;;;;;;5051266;28;20425;-88
2020/12/17 09:22:43;;;;;;;1.48;1.38;;;9.80;99.90;;;;;;5068743;28;19908;-88
2020/12/17 09:25:09;;;;;;;5.05;2.38;;;9.80;99.90;;;;;;5069322;28;20035;-88
2020/12/17 09:27:37;;;;;;;2.45;1.58;;;9.90;99.90;;;;;;5036738;28;20024;-88
2020/12/17 09:30:13;;;;;;;2.80;2.35;;;10.00;99.90;;;;;;5051050;28;20378;-88
2020/12/17 09:32:41;;;;;;;2.42;1.70;;;10.10;99.90;;;;;;5068053;28;20091;-88
2020/12/17 09:35:12;;;;;;;1.27;1.17;;;10.50;99.90;;;;;;5069182;28;20558;-89
2020/12/17 09:37:40;;;;;;;0.43;0.43;;;10.60;99.90;;;;;;5050896;28;20020;-88
2020/12/17 09:40:10;;;;;;;2.75;0.95;;;10.80;99.90;;;;;;5067078;28;20027;-89
2020/12/17 09:42:37;;;;;;;0.95;0.50;;;10.80;99.90;;;;;;5069213;28;20031;-89
2020/12/17 09:45:15;;;;;;;0.30;0.30;;;10.70;99.90;;;;;;5068690;28;20497;-88
2020/12/17 09:47:41;;;;;;;0.20;0.20;;;10.90;99.90;;;;;;5068564;28;20111;-87
2020/12/17 09:50:17;;;;;;;0.80;0.60;;;11.00;99.90;;;;;;5069239;28;20107;-88
2020/12/17 09:52:44;;;;;;;0.38;0.38;;;11.10;99.90;;;;;;5068741;28;20024;-88
2020/12/17 09:55:14;;;;;;;0.30;0.30;;;11.10;99.90;;;;;;5036953;28;20047;-88
2020/12/17 09:57:43;;;;;;;0.10;0.10;;;11.20;99.90;;;;;;5053104;28;20621;-88
2020/12/17 10:00:12;;;;;;;0.47;0.47;;;11.60;99.90;;;;;;5069064;28;20025;-88
2020/12/17 10:02:38;;;;;;;0.70;0.70;;;11.80;99.90;;;;;;5050197;28;20027;-87
2020/12/17 10:05:05;;;;;;;;;;;11.70;99.90;;;;;;5051021;28;20040;-88
2020/12/17 10:07:31;;;;;;;;;;;11.60;99.90;;;;;;5068896;28;19977;-88
2020/12/17 10:09:57;;;;;;;1.40;0.60;;;11.50;99.90;;;;;;5067454;28;20376;-88
2020/12/17 10:12:24;;;;;;;0.20;0.20;;;11.40;99.90;;;;;;5067113;28;20432;-88
2020/12/17 10:14:50;;;;;;;1.10;1.00;;;11.40;99.90;;;;;;5050326;28;20454;-88
2020/12/17 10:17:15;;;;;;;0.10;0.10;;;11.30;99.90;;;;;;5050267;28;20115;-88
2020/12/17 10:19:41;;;;;;;0.10;0.10;;;11.60;99.90;;;;;;5068004;28;20159;-88
2020/12/17 10:22:07;;;;;;;0.95;0.93;;;11.80;99.90;;;;;;5050228;28;20039;-88
2020/12/17 10:24:33;;;;;;;0.10;0.10;;;12.00;99.90;;;;;;5050000;28;20111;-88
2020/12/17 10:27:00;;;;;;;0.10;0.10;;;12.40;99.90;;;;;;5050620;28;20532;-88
2020/12/17 10:29:26;;;;;;;0.10;0.10;;;12.90;99.90;;;;;;5068449;28;20324;-88
2020/12/17 10:31:54;;;;;;;0.10;0.10;;;13.00;99.90;;;;;;5068485;28;20025;-88
2020/12/17 10:34:20;;;;;;;0.10;0.10;;;13.00;99.90;;;;;;5068059;28;20036;-88
2020/12/17 10:36:46;;;;;;;0.23;0.23;;;13.00;99.90;;;;;;5052758;28;20398;-88
2020/12/17 10:39:15;;;;;;;0.10;0.10;;;13.10;99.90;;;;;;5045475;28;20092;-88
2020/12/17 10:41:41;;;;;;;0.10;0.10;;;13.30;99.90;;;;;;5048785;28;20055;-88
2020/12/17 10:44:08;;;;;;;0.40;0.40;;;13.20;99.90;;;;;;5070087;28;20082;-88
2020/12/17 10:46:35;;;;;;;0.55;0.55;;;13.90;99.90;;;;;;5072529;28;20720;-88
2020/12/17 10:49:02;;;;;;;0.10;0.10;;;14.20;99.90;;;;;;5054588;28;20524;-88
2020/12/17 10:51:29;;;;;;;0.40;0.40;;;14.20;99.90;;;;;;5072743;28;20450;-88
2020/12/17 10:53:54;;;;;;;0.50;0.50;;;13.70;99.90;;;;;;5071711;28;20490;-88
2020/12/17 10:56:20;;;;;;;0.40;0.22;;;13.50;99.90;;;;;;5072309;28;20039;-88
2020/12/17 10:58:49;;;;;;;0.20;0.20;;;13.80;99.90;;;;;;5072098;28;20029;-88
2020/12/17 11:01:19;;;;;;;0.35;0.35;;;13.70;99.90;;;;;;5072642;28;20490;-87
2020/12/17 11:03:45;;;;;;;0.10;0.10;;;13.50;99.90;;;;;;5071842;28;20106;-88
2020/12/17 11:06:17;;;;;;;0.25;0.25;;;13.60;99.90;;;;;;5072597;28;20013;-88
2020/12/17 11:08:43;;;;;;;0.10;0.10;;;13.70;99.90;;;;;;5072249;28;20032;-88
2020/12/17 11:11:10;;;;;;;0.60;0.40;;;13.50;99.90;;;;;;5056132;28;20051;-88
2020/12/17 11:13:36;;;;;;;0.25;0.25;;;13.20;99.90;;;;;;5062362;28;20048;-88
2020/12/17 11:16:02;;;;;;;0.20;0.20;;;13.30;99.90;;;;;;5071817;28;20417;-88
2020/12/17 11:18:28;;;;;;;0.20;0.20;;;12.90;99.90;;;;;;5071869;28;20052;-88
2020/12/17 11:20:53;;;;;;;2.90;1.75;;;12.80;99.90;;;;;;5071276;28;20474;-89
2020/12/17 11:23:19;;;;;;;0.27;0.27;;;12.80;99.90;;;;;;5072118;28;20027;-88
2020/12/17 11:25:45;;;;;;;0.10;0.10;;;13.30;99.90;;;;;;5071496;28;20017;-89
2020/12/17 11:28:11;;;;;;;0.40;0.40;;;13.40;99.90;;;;;;5071601;28;20024;-89
2020/12/17 11:30:37;;;;;;;2.60;0.47;;;13.00;99.90;;;;;;5053639;28;20036;-89
2020/12/17 11:33:03;;;;;;;0.10;0.10;;;13.00;99.90;;;;;;5049307;28;20468;-89
2020/12/17 11:35:31;;;;;;;0.22;0.22;;;13.10;99.90;;;;;;5059781;28;20028;-89
2020/12/17 11:37:57;;;;;;;2.20;0.90;;;14.40;99.90;;;;;;5071316;28;20028;-89
2020/12/17 11:40:24;;;;;;;0.38;0.30;;;14.70;99.90;;;;;;5071441;28;20380;-89
2020/12/17 11:42:51;;;;;;;0.40;0.40;;;14.90;99.90;;;;;;5069863;28;20033;-88
2020/12/17 11:45:17;;;;;;;;;;;14.10;99.90;;;;;;5053975;28;20094;-88
2020/12/17 11:47:43;;;;;;;3.10;1.02;;;14.20;99.90;;;;;;5058073;28;20375;-89
2020/12/17 11:50:09;;;;;;;0.30;0.30;;;14.40;99.90;;;;;;5058279;28;20448;-89
2020/12/17 11:52:36;;;;;;;3.92;1.40;;;13.90;99.90;;;;;;5071298;28;20038;-89
2020/12/17 11:55:05;;;;;;;0.20;0.20;;;13.80;99.90;;;;;;5070122;28;20033;-89
2020/12/17 11:57:31;;;;;;;0.10;0.10;;;13.70;99.90;;;;;;5052700;28;20024;-88
2020/12/17 11:59:57;;;;;;;0.28;0.28;;;13.30;99.90;;;;;;5070774;28;20420;-89
2020/12/17 12:02:22;;;;;;;1.10;0.75;;;12.90;99.90;;;;;;5053078;28;20028;-89
2020/12/17 12:04:48;;;;;;;0.17;0.17;;;13.00;99.90;;;;;;5071191;28;20020;-88
2020/12/17 12:07:14;;;;;;;1.25;1.17;;;12.70;99.90;;;;;;5069379;28;20036;-89
2020/12/17 12:09:40;;;;;;;0.30;0.30;;;12.70;99.90;;;;;;5070943;28;20129;-88
2020/12/17 12:12:05;;;;;;;0.22;0.22;;;12.90;99.90;;;;;;5052985;28;20036;-88
2020/12/17 12:14:31;;;;;;;0.20;0.20;;;13.00;99.90;;;;;;5070777;28;20033;-88
2020/12/17 12:16:57;;;;;;;0.20;0.20;;;13.10;99.90;;;;;;5069347;28;20079;-89
2020/12/17 12:19:23;;;;;;;0.23;0.23;;;12.90;99.90;;;;;;5070118;28;20057;-88
2020/12/17 12:21:52;;;;;;;0.10;0.10;;;12.70;99.90;;;;;;5070558;28;20094;-88
2020/12/17 12:24:18;;;;;;;0.20;0.20;;;12.70;99.90;;;;;;5052090;28;20111;-88
2020/12/17 12:26:44;;;;;;;1.88;0.55;;;12.90;99.90;;;;;;5052559;28;20467;-88
2020/12/17 12:29:10;;;;;;;0.10;0.10;;;13.00;99.90;;;;;;5052067;28;20024;-88
2020/12/17 12:31:36;;;;;;;4.88;0.50;;;12.90;99.90;;;;;;5052182;28;20029;-89
2020/12/17 12:34:02;;;;;;;0.20;0.20;;;12.80;99.90;;;;;;5069797;28;20036;-88
2020/12/17 12:36:27;;;;;;;0.45;0.45;;;13.00;99.90;;;;;;5070326;28;20398;-89
2020/12/17 12:38:53;;;;;;;0.27;0.27;;;13.20;99.90;;;;;;5070251;28;20482;-89
2020/12/17 12:41:20;;;;;;;3.72;1.02;;;13.20;99.90;;;;;;5069841;28;20060;-89
2020/12/17 12:43:46;;;;;;;0.60;0.60;;;13.20;99.90;;;;;;5070882;28;20063;-89
2020/12/17 12:46:11;;;;;;;1.00;0.90;;;13.30;99.90;;;;;;5051988;28;20490;-89
2020/12/17 12:48:37;;;;;;;0.53;0.53;;;13.40;99.90;;;;;;5069656;28;20043;-89
2020/12/17 12:51:04;;;;;;;0.75;0.75;;;13.20;99.90;;;;;;5052462;28;20029;-88
2020/12/17 12:53:31;;;;;;;0.60;0.60;;;13.20;99.90;;;;;;5068325;28;20485;-88
2020/12/17 12:55:57;;;;;;;1.90;1.48;;;13.30;99.90;;;;;;5056423;28;20032;-89
2020/12/17 12:58:23;;;;;;;0.97;0.70;;;13.20;99.90;;;;;;5069800;28;20027;-88
2020/12/17 13:00:52;;;;;;;0.82;0.77;;;13.10;99.90;;;;;;5052191;28;20039;-88